Time;durP1;ratioP1;P1;durP2;ratioP2;P2;SDS_P1;SDS_P2;PMS_P1;PMS_P2;Temp;Humidity;BMP_temperature;BMP_pressure;BME280_temperature;BME280_humidity;BME280_pressure;Samples;Min_cycle;Max_cycle;Signal;HPM_P1;HPM_P2
2021/05/14 00:00:33;;;;;;;0.30;0.30;;;11.80;99.90;;;;;;4431189;32;20065;-76
2021/05/14 00:02:59;;;;;;;0.30;0.30;;;11.80;99.90;;;;;;4431413;32;20147;-76
2021/05/14 00:05:24;;;;;;;0.30;0.30;;;11.80;99.90;;;;;;4431513;32;20077;-76
2021/05/14 00:07:50;;;;;;;0.32;0.32;;;11.80;99.90;;;;;;4432183;32;20392;-76
2021/05/14 00:10:18;;;;;;;0.30;0.30;;;11.80;99.90;;;;;;4431225;32;20420;-75
2021/05/14 00:12:44;;;;;;;0.30;0.30;;;11.80;99.90;;;;;;4420507;32;20066;-76
2021/05/14 00:15:10;;;;;;;0.20;0.20;;;11.80;99.90;;;;;;4416770;32;20131;-76
2021/05/14 00:17:36;;;;;;;0.20;0.20;;;11.80;99.90;;;;;;4415488;32;20058;-76
2021/05/14 00:20:04;;;;;;;0.30;0.30;;;11.80;99.90;;;;;;4416219;32;20569;-77
2021/05/14 00:22:30;;;;;;;0.30;0.30;;;11.80;99.90;;;;;;4415794;32;20074;-76
2021/05/14 00:24:55;;;;;;;0.20;0.20;;;11.80;99.90;;;;;;4415406;32;20062;-76
2021/05/14 00:27:21;;;;;;;0.57;0.57;;;11.70;99.90;;;;;;4416382;32;20061;-76
2021/05/14 00:29:47;;;;;;;0.40;0.40;;;11.80;99.90;;;;;;4415638;32;20077;-76
2021/05/14 00:32:12;;;;;;;0.25;0.25;;;11.80;99.90;;;;;;4416377;32;20083;-77
2021/05/14 00:34:38;;;;;;;0.20;0.20;;;11.80;99.90;;;;;;4415134;32;20511;-76
2021/05/14 00:37:03;;;;;;;0.28;0.28;;;11.80;99.90;;;;;;4414579;32;20086;-76
2021/05/14 00:39:29;;;;;;;0.35;0.32;;;11.70;99.90;;;;;;4415761;32;20069;-76
2021/05/14 00:41:54;;;;;;;0.35;0.35;;;11.70;99.90;;;;;;4415462;32;20420;-75
2021/05/14 00:44:28;;;;;;;0.30;0.30;;;11.70;99.90;;;;;;4414672;32;20536;-75
2021/05/14 00:46:55;;;;;;;0.40;0.40;;;11.80;99.90;;;;;;4415706;32;20070;-76
2021/05/14 00:49:20;;;;;;;0.25;0.25;;;11.70;99.90;;;;;;4414927;32;20396;-75
2021/05/14 00:51:46;;;;;;;0.20;0.20;;;11.70;99.90;;;;;;4415522;32;20057;-75
2021/05/14 00:54:14;;;;;;;0.30;0.30;;;11.70;99.90;;;;;;4423785;32;20379;-76
2021/05/14 00:56:40;;;;;;;0.20;0.20;;;11.70;99.90;;;;;;4431593;32;20098;-76
2021/05/14 00:59:05;;;;;;;0.30;0.30;;;11.70;99.90;;;;;;4429943;32;20453;-77
2021/05/14 01:01:31;;;;;;;0.28;0.28;;;11.70;99.90;;;;;;4430968;32;20134;-75
2021/05/14 01:03:56;;;;;;;0.25;0.25;;;11.70;99.90;;;;;;4430089;32;20078;-75
2021/05/14 01:06:23;;;;;;;0.20;0.20;;;11.60;99.90;;;;;;4430105;32;20112;-75
2021/05/14 01:08:48;;;;;;;0.30;0.30;;;11.60;99.90;;;;;;4430743;32;20057;-76
2021/05/14 01:11:14;;;;;;;0.30;0.30;;;11.70;99.90;;;;;;4428673;32;20170;-75
2021/05/14 01:13:39;;;;;;;0.30;0.30;;;11.60;99.90;;;;;;4415092;32;20066;-78
2021/05/14 01:16:05;;;;;;;0.30;0.30;;;11.60;99.90;;;;;;4415275;32;20121;-75
2021/05/14 01:18:33;;;;;;;0.30;0.30;;;11.60;99.90;;;;;;4415213;32;20054;-76
2021/05/14 01:20:59;;;;;;;0.30;0.30;;;11.60;99.90;;;;;;4415283;32;20061;-75
2021/05/14 01:23:25;;;;;;;0.40;0.40;;;11.60;99.90;;;;;;4415757;32;20070;-77
2021/05/14 01:25:51;;;;;;;0.20;0.20;;;11.70;99.90;;;;;;4415572;32;20086;-75
2021/05/14 01:28:17;;;;;;;0.30;0.30;;;11.60;99.90;;;;;;4415328;32;20065;-77
2021/05/14 01:30:43;;;;;;;0.30;0.30;;;11.60;99.90;;;;;;4415892;32;20133;-77
2021/05/14 01:33:10;;;;;;;0.28;0.28;;;11.60;99.90;;;;;;4414583;32;20528;-75
2021/05/14 01:35:36;;;;;;;0.20;0.20;;;11.60;99.90;;;;;;4415688;32;20126;-76
2021/05/14 01:38:03;;;;;;;0.25;0.25;;;11.70;99.90;;;;;;4414617;32;20062;-76
2021/05/14 01:40:28;;;;;;;0.30;0.30;;;11.60;99.90;;;;;;4415258;32;20511;-76
2021/05/14 01:42:54;;;;;;;0.30;0.30;;;11.60;99.90;;;;;;4415256;32;20120;-76
2021/05/14 01:45:20;;;;;;;0.32;0.32;;;11.60;99.90;;;;;;4414236;32;20062;-76
2021/05/14 01:47:46;;;;;;;0.30;0.30;;;11.60;99.90;;;;;;4414074;32;20409;-75
2021/05/14 01:50:12;;;;;;;0.20;0.20;;;11.60;99.90;;;;;;4414586;32;20078;-76
2021/05/14 01:52:37;;;;;;;0.30;0.30;;;11.60;99.90;;;;;;4416149;32;20065;-76
2021/05/14 01:55:04;;;;;;;0.20;0.20;;;11.60;99.90;;;;;;4429034;32;20510;-76
2021/05/14 01:57:30;;;;;;;0.52;0.40;;;11.60;99.90;;;;;;4430711;32;20057;-76
2021/05/14 01:59:56;;;;;;;0.40;0.40;;;11.50;99.90;;;;;;4430004;32;20064;-76
2021/05/14 02:02:22;;;;;;;0.30;0.30;;;11.50;99.90;;;;;;4430134;32;20134;-75
2021/05/14 02:04:48;;;;;;;0.30;0.30;;;11.60;99.90;;;;;;4431061;32;20453;-76
2021/05/14 02:07:14;;;;;;;0.30;0.30;;;11.60;99.90;;;;;;4430329;32;20423;-77
2021/05/14 02:09:39;;;;;;;0.40;0.40;;;11.50;99.90;;;;;;4429759;32;20085;-76
2021/05/14 02:12:06;;;;;;;0.40;0.40;;;11.60;99.90;;;;;;4421914;32;20117;-76
2021/05/14 02:14:31;;;;;;;0.40;0.40;;;11.60;99.90;;;;;;4415369;32;20534;-75
2021/05/14 02:16:57;;;;;;;0.30;0.30;;;11.60;99.90;;;;;;4414554;32;20062;-76
2021/05/14 02:19:22;;;;;;;0.30;0.30;;;11.60;99.90;;;;;;4414211;32;20074;-77
2021/05/14 02:21:48;;;;;;;0.20;0.20;;;11.50;99.90;;;;;;4414328;32;20070;-76
2021/05/14 02:24:14;;;;;;;0.30;0.30;;;11.60;99.90;;;;;;4414850;32;20074;-76
2021/05/14 02:26:39;;;;;;;0.35;0.35;;;11.60;99.90;;;;;;4414644;32;20120;-76
2021/05/14 02:29:05;;;;;;;0.30;0.30;;;11.60;99.90;;;;;;4413625;32;20385;-75
2021/05/14 02:31:31;;;;;;;0.30;0.30;;;11.60;99.90;;;;;;4414583;32;20483;-75
2021/05/14 02:33:56;;;;;;;0.20;0.20;;;11.60;99.90;;;;;;4414155;32;20535;-75
2021/05/14 02:36:22;;;;;;;0.30;0.30;;;11.60;99.90;;;;;;4413609;32;20065;-75
2021/05/14 02:38:48;;;;;;;0.30;0.30;;;11.60;99.90;;;;;;4414345;32;20069;-74
2021/05/14 02:41:14;;;;;;;0.17;0.17;;;11.60;99.90;;;;;;4413460;32;20066;-75
2021/05/14 02:43:41;;;;;;;0.30;0.30;;;11.60;99.90;;;;;;4414253;32;20066;-75
2021/05/14 02:46:06;;;;;;;0.30;0.30;;;11.60;99.90;;;;;;4416855;32;20062;-75
2021/05/14 02:48:32;;;;;;;0.20;0.20;;;11.60;99.90;;;;;;4415689;32;20546;-75
2021/05/14 02:50:58;;;;;;;0.30;0.30;;;11.60;99.90;;;;;;4416715;32;20065;-75
2021/05/14 02:53:23;;;;;;;0.30;0.30;;;11.70;99.90;;;;;;4419986;32;20082;-75
2021/05/14 02:55:49;;;;;;;0.30;0.30;;;11.70;99.90;;;;;;4431941;32;20081;-75
2021/05/14 02:58:15;;;;;;;0.40;0.40;;;11.70;99.90;;;;;;4432191;32;20062;-75
2021/05/14 03:00:40;;;;;;;0.30;0.30;;;11.70;99.90;;;;;;4431222;32;20522;-75
2021/05/14 03:03:06;;;;;;;0.30;0.30;;;11.60;99.90;;;;;;4432588;32;20069;-75
2021/05/14 03:05:31;;;;;;;0.30;0.30;;;11.60;99.90;;;;;;4431949;32;20505;-75
2021/05/14 03:07:57;;;;;;;0.25;0.25;;;11.50;99.90;;;;;;4433151;32;20069;-75
2021/05/14 03:10:23;;;;;;;0.40;0.40;;;11.50;99.90;;;;;;4431182;32;20069;-75
2021/05/14 03:12:48;;;;;;;0.30;0.30;;;11.50;99.90;;;;;;4419422;32;20083;-75
2021/05/14 03:15:14;;;;;;;0.20;0.20;;;11.50;99.90;;;;;;4416006;32;20203;-76
2021/05/14 03:17:40;;;;;;;0.30;0.30;;;11.50;99.90;;;;;;4415479;32;20061;-75
2021/05/14 03:20:07;;;;;;;0.32;0.32;;;11.50;99.90;;;;;;4416732;32;20061;-75
2021/05/14 03:22:32;;;;;;;0.30;0.30;;;11.50;99.90;;;;;;4416554;32;20073;-75
2021/05/14 03:24:58;;;;;;;0.30;0.30;;;11.50;99.90;;;;;;4416084;32;20061;-75
2021/05/14 03:27:23;;;;;;;0.30;0.30;;;11.50;99.90;;;;;;4416224;32;20070;-75
2021/05/14 03:29:49;;;;;;;0.30;0.30;;;11.50;99.90;;;;;;4415944;32;20503;-75
2021/05/14 03:32:14;;;;;;;0.20;0.20;;;11.50;99.90;;;;;;4416138;32;20066;-75
2021/05/14 03:34:40;;;;;;;1.45;0.65;;;11.50;99.90;;;;;;4416666;32;20057;-75
2021/05/14 03:37:06;;;;;;;0.37;0.37;;;11.40;99.90;;;;;;4415938;32;20062;-74
2021/05/14 03:39:31;;;;;;;0.40;0.40;;;11.40;99.90;;;;;;4416543;32;20066;-76
2021/05/14 03:42:12;;;;;;;0.40;0.40;;;11.40;99.90;;;;;;4415938;32;20062;-75
2021/05/14 03:44:38;;;;;;;;;;;11.40;99.90;;;;;;4416738;32;20520;-75
2021/05/14 03:47:04;;;;;;;0.40;0.40;;;11.40;99.90;;;;;;4415788;32;19961;-75
2021/05/14 03:49:33;;;;;;;0.30;0.30;;;11.40;99.90;;;;;;4416139;32;20054;-75
2021/05/14 03:51:58;;;;;;;0.30;0.30;;;11.30;99.90;;;;;;4415893;32;20120;-76
2021/05/14 03:54:24;;;;;;;0.30;0.30;;;11.30;99.90;;;;;;4426568;32;20078;-76
2021/05/14 03:56:49;;;;;;;0.35;0.35;;;11.40;99.90;;;;;;4430890;32;20065;-76
2021/05/14 03:59:16;;;;;;;0.28;0.28;;;11.40;99.90;;;;;;4430999;32;20117;-76
2021/05/14 04:01:41;;;;;;;3.50;0.40;;;11.40;99.90;;;;;;4430682;32;20127;-76
2021/05/14 04:04:07;;;;;;;0.20;0.20;;;11.40;99.90;;;;;;4431107;32;20523;-76
2021/05/14 04:06:32;;;;;;;0.30;0.30;;;11.30;99.90;;;;;;4429932;32;20068;-76
2021/05/14 04:08:58;;;;;;;0.40;0.40;;;11.30;99.90;;;;;;4431238;32;20057;-76
2021/05/14 04:11:47;;;;;;;0.20;0.20;;;11.30;99.90;;;;;;4427790;32;20073;-76
2021/05/14 04:14:40;;;;;;;0.20;0.20;;;11.30;99.90;;;;;;4403792;32;20511;-75
2021/05/14 04:16:54;;;;;;;0.30;0.30;;;11.30;99.90;;;;;;4403593;32;20139;-75
2021/05/14 04:19:20;;;;;;;0.32;0.32;;;11.30;99.90;;;;;;4415098;32;20062;-76
2021/05/14 04:21:45;;;;;;;0.25;0.25;;;11.30;99.90;;;;;;4415906;32;20519;-76
2021/05/14 04:24:11;;;;;;;0.37;0.37;;;11.30;99.90;;;;;;4415209;32;20401;-75
2021/05/14 04:26:37;;;;;;;0.30;0.30;;;11.30;99.90;;;;;;4415465;32;20073;-76
2021/05/14 04:29:03;;;;;;;0.30;0.30;;;11.40;99.90;;;;;;4414838;32;20112;-76
2021/05/14 04:31:29;;;;;;;0.20;0.20;;;11.30;99.90;;;;;;4415728;32;20499;-75
2021/05/14 04:33:57;;;;;;;0.28;0.28;;;11.40;99.90;;;;;;4414908;32;20491;-74
2021/05/14 04:36:22;;;;;;;0.30;0.30;;;11.30;99.90;;;;;;4415246;32;20062;-76
2021/05/14 04:38:48;;;;;;;0.20;0.20;;;11.30;99.90;;;;;;4415303;32;20396;-77
2021/05/14 04:41:13;;;;;;;0.22;0.22;;;11.30;99.90;;;;;;4416179;32;20404;-76
2021/05/14 04:43:39;;;;;;;0.30;0.30;;;11.30;99.90;;;;;;4414941;32;20066;-76
2021/05/14 04:46:04;;;;;;;0.30;0.30;;;11.30;99.90;;;;;;4415231;32;20109;-76
2021/05/14 04:48:30;;;;;;;0.30;0.30;;;11.30;99.90;;;;;;4414667;32;20061;-76
2021/05/14 04:50:56;;;;;;;0.30;0.30;;;11.30;99.90;;;;;;4415041;32;20112;-75
2021/05/14 04:53:28;;;;;;;0.35;0.35;;;11.30;99.90;;;;;;4419790;32;20108;-76
2021/05/14 04:55:54;;;;;;;0.30;0.30;;;11.30;99.90;;;;;;4432307;32;20064;-75
2021/05/14 04:58:19;;;;;;;0.30;0.30;;;11.20;99.90;;;;;;4431369;32;20070;-76
2021/05/14 05:00:44;;;;;;;0.22;0.22;;;11.20;99.90;;;;;;4426908;32;20078;-76
2021/05/14 05:03:10;;;;;;;0.35;0.35;;;11.10;99.90;;;;;;4426753;32;20156;-76
2021/05/14 05:05:36;;;;;;;0.20;0.20;;;11.20;99.90;;;;;;4429388;32;20458;-76
2021/05/14 05:08:02;;;;;;;3.05;0.52;;;11.20;99.90;;;;;;4428009;32;20070;-76
2021/05/14 05:10:28;;;;;;;0.22;0.22;;;11.20;99.90;;;;;;4429022;32;20168;-76
2021/05/14 05:12:56;;;;;;;0.20;0.20;;;11.30;99.90;;;;;;4427256;32;20069;-76
2021/05/14 05:15:22;;;;;;;0.28;0.28;;;11.30;99.90;;;;;;4429621;32;20619;-76
2021/05/14 05:17:47;;;;;;;0.40;0.40;;;11.30;99.90;;;;;;4428888;32;20143;-76
2021/05/14 05:20:13;;;;;;;0.30;0.30;;;11.30;99.90;;;;;;4429084;32;20127;-76
2021/05/14 05:22:39;;;;;;;0.45;0.45;;;11.20;99.90;;;;;;4428866;32;20525;-75
2021/05/14 05:25:05;;;;;;;0.30;0.30;;;11.20;99.90;;;;;;4428685;32;20065;-76
2021/05/14 05:27:30;;;;;;;0.40;0.40;;;11.30;99.90;;;;;;4428644;32;20420;-75
2021/05/14 05:29:56;;;;;;;2.03;0.90;;;11.30;99.90;;;;;;4423536;32;20061;-76
2021/05/14 05:32:21;;;;;;;0.22;0.22;;;11.20;99.90;;;;;;4413647;32;20145;-76
2021/05/14 05:34:47;;;;;;;0.35;0.35;;;11.20;99.90;;;;;;4413715;32;20519;-76
2021/05/14 05:37:13;;;;;;;0.37;0.37;;;11.20;99.90;;;;;;4413028;32;20075;-75
2021/05/14 05:39:38;;;;;;;4.90;0.52;;;11.10;99.90;;;;;;4413837;32;20510;-76
2021/05/14 05:42:04;;;;;;;0.25;0.25;;;11.10;99.90;;;;;;4414071;32;20054;-76
2021/05/14 05:44:30;;;;;;;0.60;0.60;;;11.10;99.90;;;;;;4413988;32;20557;-76
2021/05/14 05:46:56;;;;;;;3.17;0.50;;;11.10;99.90;;;;;;4413225;32;20084;-75
2021/05/14 05:49:22;;;;;;;0.30;0.30;;;11.10;99.90;;;;;;4412837;32;20069;-75
2021/05/14 05:51:48;;;;;;;0.65;0.32;;;11.20;99.90;;;;;;4413845;32;20126;-75
2021/05/14 05:54:14;;;;;;;0.40;0.40;;;11.10;99.90;;;;;;4415925;32;20068;-75
2021/05/14 05:56:42;;;;;;;1.55;0.73;;;11.10;99.90;;;;;;4429522;32;20057;-76
2021/05/14 05:59:10;;;;;;;0.30;0.30;;;11.00;99.90;;;;;;4413423;32;20500;-76
2021/05/14 06:01:35;;;;;;;0.32;0.32;;;11.10;99.90;;;;;;4413922;32;20457;-76
2021/05/14 06:04:01;;;;;;;0.43;0.43;;;11.00;99.90;;;;;;4413221;32;20112;-75
2021/05/14 06:06:28;;;;;;;2.08;0.50;;;11.00;99.90;;;;;;4418456;32;20543;-78
2021/05/14 06:08:54;;;;;;;0.57;0.45;;;11.00;99.90;;;;;;4429158;32;20077;-75
2021/05/14 06:11:19;;;;;;;0.40;0.40;;;11.00;99.90;;;;;;4426546;32;20065;-75
2021/05/14 06:13:45;;;;;;;1.10;1.05;;;11.10;99.90;;;;;;4413301;32;20068;-76
2021/05/14 06:16:10;;;;;;;0.62;0.40;;;11.10;99.90;;;;;;4413581;32;20511;-75
2021/05/14 06:18:46;;;;;;;0.40;0.40;;;11.00;99.90;;;;;;4412525;32;20501;-75
2021/05/14 06:21:11;;;;;;;5.05;1.25;;;11.00;99.90;;;;;;4416290;32;20405;-75
2021/05/14 06:23:37;;;;;;;1.15;0.50;;;11.00;99.90;;;;;;4416827;32;20069;-75
2021/05/14 06:26:03;;;;;;;0.30;0.30;;;11.00;99.90;;;;;;4416937;32;20074;-78
2021/05/14 06:28:29;;;;;;;0.95;0.52;;;11.00;99.90;;;;;;4416166;32;20124;-75
2021/05/14 06:30:54;;;;;;;0.30;0.30;;;11.10;99.90;;;;;;4416372;32;20446;-75
2021/05/14 06:33:20;;;;;;;0.25;0.25;;;11.10;99.90;;;;;;4415638;32;20132;-76
2021/05/14 06:35:48;;;;;;;0.37;0.37;;;11.10;99.90;;;;;;4415612;32;20066;-75
2021/05/14 06:38:14;;;;;;;0.20;0.20;;;11.10;99.90;;;;;;4415344;32;20078;-75
2021/05/14 06:40:39;;;;;;;0.40;0.40;;;11.10;99.90;;;;;;4416427;32;20104;-75
2021/05/14 06:43:05;;;;;;;0.80;0.37;;;11.10;99.90;;;;;;4415590;32;20105;-77
2021/05/14 06:45:31;;;;;;;0.32;0.32;;;11.20;99.90;;;;;;4415552;32;20121;-77
2021/05/14 06:48:05;;;;;;;0.20;0.20;;;11.20;99.90;;;;;;4415642;32;20077;-75
2021/05/14 06:50:32;;;;;;;1.55;0.70;;;11.20;99.90;;;;;;4415518;32;20154;-76
2021/05/14 06:52:57;;;;;;;0.20;0.20;;;11.30;99.90;;;;;;4426775;32;20108;-75
2021/05/14 06:55:23;;;;;;;0.40;0.40;;;11.30;99.90;;;;;;4430479;32;20086;-75
2021/05/14 06:57:48;;;;;;;0.30;0.30;;;11.30;99.90;;;;;;4428787;32;20058;-75
2021/05/14 07:00:17;;;;;;;0.20;0.20;;;11.20;99.90;;;;;;4431426;32;20053;-75
2021/05/14 07:02:45;;;;;;;0.40;0.40;;;11.10;99.90;;;;;;4430237;32;20124;-75
2021/05/14 07:05:12;;;;;;;0.40;0.40;;;11.20;99.90;;;;;;4431883;32;20054;-77
2021/05/14 07:07:37;;;;;;;0.40;0.40;;;11.30;99.90;;;;;;4430883;32;20086;-76
2021/05/14 07:10:04;;;;;;;1.02;0.75;;;11.30;99.90;;;;;;4426375;32;20065;-76
2021/05/14 07:12:30;;;;;;;0.37;0.37;;;11.30;99.90;;;;;;4424830;32;20563;-75
2021/05/14 07:14:55;;;;;;;0.40;0.40;;;11.40;99.90;;;;;;4430421;32;20057;-75
2021/05/14 07:17:21;;;;;;;0.30;0.30;;;11.30;99.90;;;;;;4430681;32;20117;-77
2021/05/14 07:19:47;;;;;;;0.30;0.30;;;11.40;99.90;;;;;;4430939;32;20069;-76
2021/05/14 07:22:12;;;;;;;0.30;0.30;;;11.40;99.90;;;;;;4431165;32;20065;-76
2021/05/14 07:24:38;;;;;;;2.83;1.37;;;11.30;99.90;;;;;;4430583;32;20075;-75
2021/05/14 07:27:03;;;;;;;0.40;0.40;;;11.30;99.90;;;;;;4430859;32;20079;-75
2021/05/14 07:29:29;;;;;;;0.40;0.40;;;11.30;99.90;;;;;;4430922;32;20070;-76
2021/05/14 07:31:54;;;;;;;0.20;0.20;;;11.30;99.90;;;;;;4429542;32;20116;-76
2021/05/14 07:34:23;;;;;;;0.40;0.40;;;11.30;99.90;;;;;;4430014;32;20484;-75
2021/05/14 07:36:48;;;;;;;0.20;0.20;;;11.20;99.90;;;;;;4430260;32;20507;-75
2021/05/14 07:39:14;;;;;;;0.40;0.40;;;11.20;99.90;;;;;;4430131;32;20123;-75
2021/05/14 07:41:39;;;;;;;0.30;0.30;;;11.10;99.90;;;;;;4430565;32;20073;-76
2021/05/14 07:44:05;;;;;;;0.20;0.20;;;11.10;99.90;;;;;;4430318;32;20065;-75
2021/05/14 07:46:30;;;;;;;0.30;0.30;;;11.00;99.90;;;;;;4430458;32;20098;-75
2021/05/14 07:48:56;;;;;;;0.30;0.30;;;11.00;99.90;;;;;;4430167;32;20435;-75
2021/05/14 07:51:21;;;;;;;0.30;0.30;;;10.90;99.90;;;;;;4431386;32;20068;-76
2021/05/14 07:53:47;;;;;;;0.22;0.22;;;10.90;99.90;;;;;;4430629;32;20327;-76
2021/05/14 07:56:12;;;;;;;0.30;0.30;;;10.90;99.90;;;;;;4416465;32;20099;-76
2021/05/14 07:58:38;;;;;;;0.30;0.30;;;11.00;99.90;;;;;;4425986;32;20066;-76
2021/05/14 08:01:03;;;;;;;0.30;0.30;;;11.00;99.90;;;;;;4430436;32;20117;-75
2021/05/14 08:03:29;;;;;;;0.30;0.30;;;11.10;99.90;;;;;;4430655;32;20057;-76
2021/05/14 08:05:54;;;;;;;0.30;0.30;;;11.10;99.90;;;;;;4427848;32;20073;-75
2021/05/14 08:08:23;;;;;;;0.28;0.28;;;11.00;99.90;;;;;;4414873;32;20070;-75
2021/05/14 08:10:53;;;;;;;0.30;0.30;;;10.90;99.90;;;;;;4414348;32;20117;-76
2021/05/14 08:13:18;;;;;;;0.20;0.20;;;11.00;99.90;;;;;;4415147;32;20559;-76
2021/05/14 08:15:45;;;;;;;0.20;0.20;;;11.00;99.90;;;;;;4415393;32;20117;-75
2021/05/14 08:18:11;;;;;;;0.30;0.30;;;11.10;99.90;;;;;;4413667;32;20074;-76
2021/05/14 08:20:39;;;;;;;0.55;0.50;;;11.00;99.90;;;;;;4414641;32;20111;-76
2021/05/14 08:23:04;;;;;;;0.30;0.30;;;11.00;99.90;;;;;;4414866;32;20067;-75
2021/05/14 08:25:30;;;;;;;0.30;0.30;;;11.10;99.90;;;;;;4414743;32;20058;-75
2021/05/14 08:27:55;;;;;;;0.30;0.30;;;11.00;99.90;;;;;;4414805;32;20087;-76
2021/05/14 08:30:21;;;;;;;0.30;0.30;;;11.10;99.90;;;;;;4414032;32;20112;-75
2021/05/14 08:32:46;;;;;;;0.30;0.30;;;11.10;99.90;;;;;;4414581;32;20062;-75
2021/05/14 08:35:12;;;;;;;0.50;0.50;;;11.10;99.90;;;;;;4415456;32;20127;-76
2021/05/14 08:37:40;;;;;;;0.30;0.30;;;11.10;99.90;;;;;;4414175;32;20519;-76
2021/05/14 08:40:08;;;;;;;0.30;0.30;;;11.10;99.90;;;;;;4414188;32;20065;-76
2021/05/14 08:42:42;;;;;;;0.40;0.40;;;11.10;99.90;;;;;;4414247;32;20058;-75
2021/05/14 08:45:13;;;;;;;0.37;0.37;;;11.10;99.90;;;;;;4414699;32;20157;-74
2021/05/14 08:47:40;;;;;;;0.30;0.30;;;11.10;99.90;;;;;;4424625;32;20072;-74
2021/05/14 08:50:07;;;;;;;0.30;0.30;;;11.10;99.90;;;;;;4429612;32;20112;-75
2021/05/14 08:52:35;;;;;;;0.60;0.60;;;11.20;99.90;;;;;;4430184;32;20073;-75
2021/05/14 08:55:02;;;;;;;0.40;0.40;;;11.30;99.90;;;;;;4421750;32;20065;-75
2021/05/14 08:57:28;;;;;;;0.40;0.40;;;11.30;99.90;;;;;;4418061;32;20069;-76
2021/05/14 08:59:54;;;;;;;0.30;0.30;;;11.30;99.90;;;;;;4428700;32;20073;-75
2021/05/14 09:02:19;;;;;;;0.28;0.28;;;11.40;99.90;;;;;;4428516;32;20448;-75
2021/05/14 09:04:47;;;;;;;0.30;0.30;;;11.30;99.90;;;;;;4428760;32;20116;-76
2021/05/14 09:07:16;;;;;;;0.20;0.20;;;11.30;99.90;;;;;;4418755;32;20058;-74
2021/05/14 09:10:01;;;;;;;0.30;0.30;;;11.30;99.90;;;;;;4413842;32;20062;-75
2021/05/14 09:12:35;;;;;;;0.75;0.40;;;11.30;99.90;;;;;;4401947;32;20065;-75
2021/05/14 09:15:21;;;;;;;0.30;0.30;;;11.40;99.90;;;;;;4414698;32;20075;-75
2021/05/14 09:18:11;;;;;;;0.50;0.50;;;11.40;99.90;;;;;;4413522;32;20062;-75
2021/05/14 09:20:39;;;;;;;0.40;0.40;;;11.40;99.90;;;;;;4412470;32;20116;-75
2021/05/14 09:23:23;;;;;;;0.30;0.30;;;11.40;99.90;;;;;;4422062;32;20069;-75
2021/05/14 09:25:51;;;;;;;0.37;0.37;;;11.40;99.90;;;;;;4423245;32;20499;-75
2021/05/14 09:28:41;;;;;;;0.40;0.40;;;11.40;99.90;;;;;;4426163;32;20062;-75
2021/05/14 09:31:27;;;;;;;0.30;0.30;;;11.30;99.90;;;;;;4420145;32;20078;-75
2021/05/14 09:33:55;;;;;;;3.65;1.33;;;11.40;99.90;;;;;;4409327;32;20065;-75
2021/05/14 09:36:25;;;;;;;0.40;0.40;;;11.30;99.90;;;;;;4421682;32;20119;-74
2021/05/14 09:39:11;;;;;;;0.30;0.30;;;11.30;99.90;;;;;;4425875;32;99073;-75
2021/05/14 09:41:39;;;;;;;0.40;0.40;;;11.20;99.90;;;;;;4428209;32;20050;-75
2021/05/14 09:44:10;;;;;;;0.30;0.30;;;11.20;99.90;;;;;;4428160;32;20089;-75
2021/05/14 09:46:40;;;;;;;0.35;0.35;;;11.10;99.90;;;;;;4427619;32;20283;-75
2021/05/14 09:49:09;;;;;;;0.50;0.50;;;11.00;99.90;;;;;;4427434;32;20394;-75
2021/05/14 09:51:45;;;;;;;1.15;0.85;;;11.00;99.90;;;;;;4427552;32;20065;-76
2021/05/14 09:54:28;;;;;;;0.37;0.37;;;11.00;99.90;;;;;;4425302;32;20522;-75
2021/05/14 09:57:32;;;;;;;0.50;0.50;;;11.00;99.90;;;;;;4413113;32;20065;-75
2021/05/14 10:00:04;;;;;;;0.32;0.32;;;11.10;99.90;;;;;;4426830;32;20093;-75
2021/05/14 10:02:35;;;;;;;0.40;0.40;;;10.90;99.90;;;;;;4427328;32;20066;-75
2021/05/14 10:05:11;;;;;;;0.40;0.40;;;11.10;99.90;;;;;;4429217;32;20543;-75
2021/05/14 10:07:37;;;;;;;0.30;0.30;;;11.10;99.90;;;;;;4426982;32;20504;-75
2021/05/14 10:10:07;;;;;;;1.85;0.70;;;11.20;99.90;;;;;;4427747;32;20190;-76
2021/05/14 10:12:34;;;;;;;0.35;0.35;;;11.30;99.90;;;;;;4426294;32;20377;-74
2021/05/14 10:15:02;;;;;;;0.28;0.28;;;11.50;99.90;;;;;;4427912;32;20274;-74
2021/05/14 10:17:27;;;;;;;0.30;0.30;;;11.60;99.90;;;;;;4427231;32;20219;-74
2021/05/14 10:19:56;;;;;;;0.40;0.40;;;11.70;99.90;;;;;;4427672;32;20073;-76
2021/05/14 10:22:28;;;;;;;0.30;0.30;;;11.80;99.90;;;;;;4427242;32;20133;-75
2021/05/14 10:24:57;;;;;;;0.45;0.45;;;11.80;99.90;;;;;;4427176;32;20089;-75
2021/05/14 10:27:26;;;;;;;0.30;0.30;;;11.80;99.90;;;;;;4427104;32;20089;-75
2021/05/14 10:29:54;;;;;;;3.95;0.75;;;11.90;99.90;;;;;;4427387;32;20518;-75
2021/05/14 10:32:40;;;;;;;0.40;0.40;;;12.00;99.90;;;;;;4428007;32;20070;-75
2021/05/14 10:35:07;;;;;;;1.37;0.88;;;12.20;99.90;;;;;;4411286;32;20070;-75
2021/05/14 10:38:01;;;;;;;1.05;0.50;;;12.20;99.90;;;;;;4421359;32;20416;-76
2021/05/14 10:40:33;;;;;;;0.50;0.50;;;12.20;99.90;;;;;;4417315;32;20085;-76
2021/05/14 10:43:02;;;;;;;0.25;0.25;;;12.20;99.90;;;;;;4427828;32;20134;-74
2021/05/14 10:45:36;;;;;;;0.90;0.62;;;12.00;99.90;;;;;;4426499;32;20072;-73
2021/05/14 10:48:03;;;;;;;0.28;0.28;;;12.00;99.90;;;;;;4426024;32;20081;-74
2021/05/14 10:50:33;;;;;;;5.05;0.60;;;12.00;99.90;;;;;;4426854;32;20066;-74
2021/05/14 10:53:21;;;;;;;3.72;0.60;;;12.00;99.90;;;;;;4426650;32;20065;-74
2021/05/14 10:55:48;;;;;;;0.40;0.40;;;12.20;99.90;;;;;;4406734;32;20061;-74
2021/05/14 10:58:41;;;;;;;0.30;0.30;;;12.40;99.90;;;;;;4418591;32;20066;-74
2021/05/14 11:01:25;;;;;;;0.30;0.30;;;12.70;99.90;;;;;;4406129;32;20123;-74
2021/05/14 11:03:50;;;;;;;0.30;0.30;;;12.80;99.90;;;;;;4426746;32;20082;-74
2021/05/14 11:06:17;;;;;;;0.30;0.30;;;12.60;99.90;;;;;;4426833;32;20070;-73
2021/05/14 11:09:05;;;;;;;0.20;0.20;;;12.80;99.90;;;;;;4429678;32;20062;-74
2021/05/14 11:11:31;;;;;;;0.30;0.30;;;12.90;99.90;;;;;;4425198;32;20165;-75
2021/05/14 11:14:13;;;;;;;0.22;0.22;;;12.90;99.90;;;;;;4427406;32;20077;-73
2021/05/14 11:16:41;;;;;;;0.40;0.40;;;12.90;99.90;;;;;;4428637;32;20404;-75
2021/05/14 11:19:13;;;;;;;0.40;0.40;;;12.90;99.90;;;;;;4428684;32;20467;-75
2021/05/14 11:22:01;;;;;;;0.30;0.30;;;12.80;99.90;;;;;;4429678;32;20621;-73
2021/05/14 11:24:37;;;;;;;0.30;0.30;;;12.90;99.90;;;;;;4413045;32;20069;-73
2021/05/14 11:27:05;;;;;;;0.40;0.40;;;12.90;99.90;;;;;;4429682;32;20376;-73
2021/05/14 11:29:35;;;;;;;1.37;1.27;;;12.80;99.90;;;;;;4419407;32;20081;-74
2021/05/14 11:32:23;;;;;;;0.30;0.30;;;12.70;99.90;;;;;;4428731;32;20066;-75
2021/05/14 11:34:51;;;;;;;0.70;0.50;;;12.60;99.90;;;;;;4416582;32;20116;-74
2021/05/14 11:37:19;;;;;;;0.30;0.30;;;12.70;99.90;;;;;;4427629;32;20684;-73
2021/05/14 11:39:45;;;;;;;2.05;0.77;;;12.60;99.90;;;;;;4429911;32;20858;-74
2021/05/14 11:42:19;;;;;;;0.30;0.30;;;12.80;99.90;;;;;;4428588;32;20068;-73
2021/05/14 11:45:04;;;;;;;0.37;0.37;;;13.00;99.90;;;;;;4429547;32;20131;-74
2021/05/14 11:47:30;;;;;;;0.20;0.20;;;13.00;99.90;;;;;;4428696;32;20519;-74
2021/05/14 11:49:56;;;;;;;0.20;0.20;;;12.90;99.90;;;;;;4429568;32;20123;-73
2021/05/14 11:52:40;;;;;;;0.82;0.82;;;12.80;99.90;;;;;;4429373;32;20069;-74
2021/05/14 11:55:09;;;;;;;0.30;0.30;;;12.90;99.90;;;;;;4422373;32;20444;-76
2021/05/14 11:57:35;;;;;;;0.40;0.40;;;12.90;99.90;;;;;;4420436;32;20081;-74
2021/05/14 12:00:00;;;;;;;0.22;0.22;;;12.80;99.90;;;;;;4430169;32;20060;-76
2021/05/14 12:02:35;;;;;;;0.30;0.30;;;12.80;99.90;;;;;;4428767;32;20073;-76
2021/05/14 12:05:00;;;;;;;1.95;0.60;;;12.90;99.90;;;;;;4430053;32;20079;-76
2021/05/14 12:07:26;;;;;;;4.30;1.42;;;13.20;99.90;;;;;;4426788;32;20074;-75
2021/05/14 12:09:57;;;;;;;0.55;0.55;;;13.30;99.90;;;;;;4429171;32;20081;-75
2021/05/14 12:12:22;;;;;;;0.35;0.35;;;13.30;99.90;;;;;;4420111;32;20082;-74
2021/05/14 12:14:48;;;;;;;0.30;0.30;;;13.30;99.90;;;;;;4419467;32;20086;-74
2021/05/14 12:17:14;;;;;;;0.30;0.30;;;13.20;99.90;;;;;;4427206;32;20125;-75
2021/05/14 12:19:47;;;;;;;0.20;0.20;;;13.30;99.90;;;;;;4429931;32;20085;-75
2021/05/14 12:22:13;;;;;;;8.70;1.77;;;13.40;99.90;;;;;;4428993;32;20077;-75
2021/05/14 12:24:40;;;;;;;0.30;0.30;;;13.20;99.90;;;;;;4428701;32;20066;-75
2021/05/14 12:27:06;;;;;;;0.30;0.30;;;13.20;99.90;;;;;;4428706;32;20069;-77
2021/05/14 12:29:32;;;;;;;0.22;0.22;;;12.90;99.90;;;;;;4418345;32;20061;-75
2021/05/14 12:31:59;;;;;;;1.45;0.40;;;12.80;99.90;;;;;;4425083;32;20416;-76
2021/05/14 12:34:25;;;;;;;0.40;0.40;;;12.90;99.90;;;;;;4429586;32;20086;-74
2021/05/14 12:36:53;;;;;;;0.35;0.35;;;13.00;99.90;;;;;;4427802;32;20506;-75
2021/05/14 12:39:20;;;;;;;0.30;0.30;;;13.20;99.90;;;;;;4429227;32;20466;-75
2021/05/14 12:41:52;;;;;;;0.30;0.30;;;13.40;99.90;;;;;;4429481;32;20083;-75
2021/05/14 12:44:21;;;;;;;0.35;0.35;;;13.50;99.90;;;;;;4428910;32;20125;-76
2021/05/14 12:47:05;;;;;;;0.30;0.30;;;13.40;99.90;;;;;;4427853;32;20502;-75
2021/05/14 12:49:33;;;;;;;0.85;0.82;;;13.50;99.90;;;;;;4428611;32;20068;-75
2021/05/14 12:52:10;;;;;;;0.30;0.30;;;13.50;99.90;;;;;;4428530;32;20149;-74